Página principal
METAR-TAF:

METAR-TAF

Aeroportos :

Aeroporto Internacional do Kuwait

Kuwait, Kuwait

latitude: 29-13N, longitude: 047-59E, altura: 55 m

Observação actual do tempo

O boletim foi feito há 15 minutos, às 04:00 UTC
Vento 5 kt de sul
Temperatura 29°C
Humidade 27%
Pressão 1006 hPa
Visibilidade: 7000 m

METAR: OKBK 240400Z 17005KT 7000 NSC 29/08 Q1006 NOSIG

Hora: 07:15 (04:15 UTC)

Previsão

O boletim foi feito há 5 horas e 30 minutos, às 22:45 UTC
Previsão válida de 24 às 00 UTC a 25 às 06 UTC
Vento 3 kt com direcção variável
Visibilidade 10 km ou mais
sem nuvens abaixo de 1500 metros e sem cumulonimbus
Tornando-se
de 24 às 12 UTC a 24 às 14 UTC
Vento 15 kt de su-sudeste

TAF: OKBK 232245Z 2400/2506 VRB03KT CAVOK BECMG 2412/2414 15015KT

Observações e previsões do tempo de mais de 4000 aeroportos (mensagens METAR e TAF).

As estações disponíveis são os pontos amarelos e vermelhos sobre o mapa.

Mova o rato sobre o mapa para ver o nome da estação.

Depois clique no ponto para visualizar as observações e previsões meteorológicas.

Para alterar o mapa : clique nos botões verdes com uma cruz preta para aumentar o zoom; no botão verde com uma pitada de zoom; ou nas setas verdes para mapas adjacentes.


METAR-TAF: